Time;durP1;ratioP1;P1;durP2;ratioP2;P2;SDS_P1;SDS_P2;PMS_P1;PMS_P2;Temp;Humidity;BMP_temperature;BMP_pressure;BME280_temperature;BME280_humidity;BME280_pressure;Samples;Min_cycle;Max_cycle;Signal;HPM_P1;HPM_P2
2022/08/13 00:00:31;;;;;;;6.88;1.80;;;;;;;18.67;38.04;100017.16;10396757;28;20490;-60
2022/08/13 00:05:34;;;;;;;4.13;1.70;;;;;;;18.57;38.43;100023.28;10397461;28;20056;-60
2022/08/13 00:10:43;;;;;;;4.15;1.75;;;;;;;18.24;39.34;100026.31;10397648;28;20049;-60
2022/08/13 00:15:47;;;;;;;7.55;1.77;;;;;;;18.19;40.07;100023.28;10397223;28;20057;-59
2022/08/13 00:20:58;;;;;;;6.65;1.60;;;;;;;18.12;39.90;100022.09;10396705;28;20296;-60
2022/08/13 00:26:01;;;;;;;6.97;1.60;;;;;;;17.82;40.48;100023.03;10397067;28;20114;-60
2022/08/13 00:31:05;;;;;;;4.43;1.58;;;;;;;17.68;41.06;100015.47;10396368;28;20561;-60
2022/08/13 00:36:12;;;;;;;3.45;1.60;;;;;;;17.71;41.14;100017.84;10394778;28;20136;-60
2022/08/13 00:41:37;;;;;;;4.55;1.75;;;;;;;17.37;41.58;100019.09;10395995;28;20054;-59
2022/08/13 00:48:41;;;;;;;3.40;1.70;;;;;;;16.91;42.52;100014.25;10396288;28;20061;-59
2022/08/13 00:52:19;;;;;;;6.28;1.73;;;;;;;17.07;42.85;100007.66;10395392;28;20045;-58
2022/08/13 00:57:21;;;;;;;6.20;1.95;;;;;;;17.18;42.59;100005.75;10395125;28;20057;-58
2022/08/13 01:02:30;;;;;;;4.43;1.65;;;;;;;16.85;43.46;100019.22;10393658;28;20517;-58
2022/08/13 01:07:35;;;;;;;3.75;1.70;;;;;;;16.66;43.88;100019.06;10394176;28;20054;-59
2022/08/13 01:12:54;;;;;;;6.80;1.88;;;;;;;16.64;43.62;100006.00;10394882;28;20127;-59
2022/08/13 01:17:57;;;;;;;5.93;1.50;;;;;;;16.78;43.86;100010.09;10394703;28;20160;-59
2022/08/13 01:23:01;;;;;;;4.70;1.70;;;;;;;16.91;43.61;100013.41;10394685;28;20454;-59
2022/08/13 01:28:03;;;;;;;3.58;1.40;;;;;;;16.87;43.49;100015.44;10394641;28;20147;-59
2022/08/13 01:33:08;;;;;;;6.97;1.67;;;;;;;16.71;44.17;100014.25;10392600;28;20148;-58
2022/08/13 01:38:12;;;;;;;3.65;1.45;;;;;;;16.76;44.39;100010.25;10393744;28;20053;-58
2022/08/13 01:43:15;;;;;;;4.75;1.50;;;;;;;16.57;44.36;100009.28;10392508;28;20081;-59
2022/08/13 01:54:00;;;;;;;3.58;1.67;;;;;;;16.58;44.95;100008.31;10392981;28;20057;-58
2022/08/13 01:59:03;;;;;;;5.95;1.80;;;;;;;16.60;44.83;100012.50;10393008;28;20390;-58
2022/08/13 02:04:14;;;;;;;5.07;1.80;;;;;;;16.55;45.04;100019.13;10376658;28;20057;-59
2022/08/13 02:09:24;;;;;;;5.17;1.70;;;;;;;16.45;44.89;100018.19;10391594;28;20293;-59
2022/08/13 02:14:45;;;;;;;2.85;1.60;;;;;;;15.95;45.57;100020.50;10393077;28;20049;-59
2022/08/13 02:19:59;;;;;;;5.85;1.73;;;;;;;15.87;46.42;100024.72;10392109;28;20418;-59
2022/08/13 02:25:05;;;;;;;2.85;1.70;;;;;;;16.08;46.03;100025.63;10392759;28;20053;-59
2022/08/13 02:30:16;;;;;;;3.75;1.70;;;;;;;16.03;46.13;100017.25;10390716;28;20056;-59
2022/08/13 02:35:19;;;;;;;5.40;1.70;;;;;;;16.02;46.31;100019.03;10392245;28;20053;-59
2022/08/13 02:45:47;;;;;;;7.43;1.80;;;;;;;15.90;46.59;100020.03;10390804;28;20352;-59
2022/08/13 02:50:55;;;;;;;4.95;1.60;;;;;;;15.83;46.92;100021.50;10392304;28;20088;-59
2022/08/13 02:55:59;;;;;;;3.42;1.58;;;;;;;15.81;46.79;100027.84;10391436;28;20342;-59
2022/08/13 03:01:02;;;;;;;7.68;1.80;;;;;;;15.84;46.75;100012.59;10393075;28;20052;-59
2022/08/13 03:06:08;;;;;;;7.53;1.60;;;;;;;15.70;47.53;100018.13;10391705;28;20055;-59
2022/08/13 03:11:10;;;;;;;5.15;1.80;;;;;;;15.72;47.51;100018.84;10390224;28;20160;-59
2022/08/13 03:16:22;;;;;;;5.18;1.80;;;;;;;15.68;47.84;100019.22;10391921;28;20093;-59
2022/08/13 03:21:36;;;;;;;4.10;1.65;;;;;;;15.65;47.31;100022.97;10392070;28;20053;-59
2022/08/13 03:26:47;;;;;;;2.33;1.57;;;;;;;15.57;47.52;100017.41;10391250;28;20136;-59
2022/08/13 03:31:54;;;;;;;7.35;2.03;;;;;;;15.48;47.84;100018.13;10393324;28;20080;-59
2022/08/13 03:36:56;;;;;;;4.45;2.20;;;;;;;15.46;47.97;100021.84;10397962;28;20569;-59
2022/08/13 03:42:00;;;;;;;3.97;1.75;;;;;;;15.43;48.24;100012.38;10398489;28;20513;-59
2022/08/13 03:47:04;;;;;;;7.35;1.85;;;;;;;15.37;48.07;100013.69;10398249;28;20092;-59
2022/08/13 03:52:28;;;;;;;2.50;1.60;;;;;;;15.27;48.48;100017.16;10396682;28;20055;-59
2022/08/13 03:57:50;;;;;;;4.55;1.65;;;;;;;15.26;48.61;100020.75;10382551;28;20065;-59
2022/08/13 04:03:41;;;;;;;6.93;2.00;;;;;;;15.21;48.67;100029.03;10397919;28;20120;-59
2022/08/13 04:08:46;;;;;;;5.13;1.85;;;;;;;15.20;48.49;100022.09;10370346;28;20053;-59
2022/08/13 04:13:49;;;;;;;4.57;1.90;;;;;;;15.05;49.07;100022.41;10397278;28;20057;-59
2022/08/13 04:19:07;;;;;;;15.98;2.15;;;;;;;14.88;49.33;100020.25;10396623;28;20127;-59
2022/08/13 04:24:20;;;;;;;5.10;1.67;;;;;;;14.96;49.45;100026.56;10396700;28;20061;-60
2022/08/13 04:29:28;;;;;;;2.50;1.70;;;;;;;15.05;49.24;100022.41;10395017;28;20049;-59
2022/08/13 04:34:42;;;;;;;5.35;1.80;;;;;;;15.10;48.92;100021.09;10396316;28;20321;-59
2022/08/13 04:39:53;;;;;;;2.83;1.75;;;;;;;15.27;48.68;100019.78;10394791;28;20580;-59
2022/08/13 04:45:13;;;;;;;3.42;1.70;;;;;;;15.30;48.51;100024.84;10394458;28;20049;-59
2022/08/13 04:50:15;;;;;;;5.65;1.80;;;;;;;15.89;47.74;100025.44;10395776;28;20080;-59
2022/08/13 04:55:20;;;;;;;3.22;1.63;;;;;;;18.24;43.69;100014.94;10395164;28;20152;-59
2022/08/13 05:00:24;;;;;;;6.53;1.80;;;;;;;20.56;38.93;100019.09;10393813;28;20583;-59
2022/08/13 05:05:26;;;;;;;5.18;1.80;;;;;;;21.54;36.78;100018.81;10395330;28;20128;-59
2022/08/13 05:10:30;;;;;;;8.75;1.90;;;;;;;22.80;34.61;100011.47;10395098;28;20944;-60
2022/08/13 05:15:39;;;;;;;7.32;1.73;;;;;;;23.09;33.39;100015.28;10394796;28;20138;-59
2022/08/13 05:20:49;;;;;;;6.50;1.73;;;;;;;21.06;36.17;100030.81;10395118;28;20060;-59
2022/08/13 05:25:54;;;;;;;4.18;1.40;;;;;;;19.39;38.80;100042.13;10385368;28;20107;-60
2022/08/13 05:31:19;;;;;;;5.07;1.63;;;;;;;18.88;39.93;100034.56;10394028;28;20056;-59
2022/08/13 05:36:24;;;;;;;3.88;1.75;;;;;;;18.32;41.14;100042.34;10393826;28;20080;-59
2022/08/13 05:41:47;;;;;;;3.50;1.70;;;;;;;17.85;42.08;100041.25;10394158;28;20499;-60
2022/08/13 05:47:09;;;;;;;6.38;1.73;;;;;;;17.80;42.19;100058.53;10393545;28;20045;-59
2022/08/13 05:52:16;;;;;;;8.63;1.60;;;;;;;17.85;42.38;100053.69;10393135;28;20103;-59
2022/08/13 05:57:41;;;;;;;4.95;1.90;;;;;;;17.75;42.99;100052.81;10392258;28;20067;-59
2022/08/13 06:08:07;;;;;;;4.03;1.60;;;;;;;18.05;42.82;100057.19;10393311;28;20089;-59
2022/08/13 06:13:30;;;;;;;4.82;1.63;;;;;;;18.15;42.80;100055.41;10392321;28;20045;-59
2022/08/13 06:18:52;;;;;;;4.28;1.70;;;;;;;18.18;42.70;100057.81;10393346;28;20042;-59
2022/08/13 06:24:05;;;;;;;5.35;1.83;;;;;;;18.29;42.79;100052.41;10391357;28;20054;-59
2022/08/13 06:29:11;;;;;;;15.90;2.03;;;;;;;18.40;42.27;100060.22;10392379;28;20057;-59
2022/08/13 06:34:18;;;;;;;4.50;1.70;;;;;;;18.52;42.22;100046.69;10391993;28;20176;-59
2022/08/13 06:39:36;;;;;;;3.85;2.10;;;;;;;18.76;40.91;100042.78;10392236;28;20053;-59
2022/08/13 06:44:44;;;;;;;7.40;2.00;;;;;;;18.74;41.04;100037.63;10392324;28;20107;-59
2022/08/13 06:49:48;;;;;;;3.92;1.88;;;;;;;18.92;40.91;100043.88;10392537;28;20045;-59
2022/08/13 06:55:03;;;;;;;6.15;1.85;;;;;;;19.04;40.29;100042.78;10391746;28;20100;-59
2022/08/13 07:00:26;;;;;;;8.40;1.90;;;;;;;19.26;39.66;100044.25;10392672;28;20060;-59
2022/08/13 07:05:41;;;;;;;5.53;1.80;;;;;;;19.56;39.35;100038.72;10392861;28;20060;-59
2022/08/13 07:10:50;;;;;;;3.63;1.70;;;;;;;19.74;38.79;100041.44;10399785;28;20045;-59
2022/08/13 07:15:52;;;;;;;;;;;;;;;19.76;38.84;100048.28;10399736;28;20111;-59
2022/08/13 07:21:04;;;;;;;4.13;1.60;;;;;;;20.31;37.85;100043.78;10399217;28;20254;-59
2022/08/13 07:26:08;;;;;;;4.10;1.80;;;;;;;20.46;37.39;100049.41;10398937;28;20057;-59
2022/08/13 07:31:13;;;;;;;6.75;1.95;;;;;;;20.78;36.85;100039.09;10398659;28;20045;-59
2022/08/13 07:36:15;;;;;;;7.97;1.80;;;;;;;20.97;36.38;100041.53;10398694;28;20058;-60
2022/08/13 07:41:20;;;;;;;6.70;1.80;;;;;;;21.54;35.67;100042.75;10397106;28;20045;-59
2022/08/13 07:46:24;;;;;;;4.90;1.80;;;;;;;22.94;33.55;100029.47;10396805;28;20115;-60
2022/08/13 07:51:30;;;;;;;5.55;1.67;;;;;;;24.35;31.67;100019.66;10397653;28;20045;-60
2022/08/13 07:56:39;;;;;;;4.35;1.70;;;;;;;25.10;30.27;100024.84;10397443;28;20144;-60
2022/08/13 08:01:50;;;;;;;6.82;1.73;;;;;;;25.33;29.46;100015.91;10398238;28;20568;-59
2022/08/13 08:07:14;;;;;;;8.63;1.70;;;;;;;25.77;29.28;100011.44;10398303;28;20355;-60
2022/08/13 08:12:35;;;;;;;9.23;2.00;;;;;;;26.29;28.21;100013.91;10397276;28;20509;-60
2022/08/13 08:18:00;;;;;;;5.40;1.67;;;;;;;26.73;27.61;100001.13;10394722;28;20084;-59
2022/08/13 08:23:23;;;;;;;10.17;1.80;;;;;;;27.15;27.28;99995.72;10395805;28;20049;-60
2022/08/13 08:28:46;;;;;;;9.52;1.80;;;;;;;27.29;26.69;99991.25;10395798;28;20164;-60
2022/08/13 08:33:55;;;;;;;10.57;1.73;;;;;;;27.46;26.69;100004.16;10396421;28;20156;-60
2022/08/13 08:44:24;;;;;;;5.57;1.80;;;;;;;28.54;25.13;99979.13;10396393;28;20049;-60
2022/08/13 08:49:28;;;;;;;4.45;1.83;;;;;;;28.84;24.90;99981.22;10394534;28;20165;-60
2022/08/13 08:54:45;;;;;;;6.03;1.50;;;;;;;28.73;24.83;99979.13;10395833;28;20085;-60
2022/08/13 08:59:48;;;;;;;6.47;1.60;;;;;;;28.91;24.68;99965.88;10395305;28;20050;-60
2022/08/13 09:04:55;;;;;;;5.85;1.60;;;;;;;29.27;24.29;99964.56;10395305;28;20057;-60
2022/08/13 09:10:01;;;;;;;2.88;1.50;;;;;;;29.56;23.33;99953.31;10395296;28;20049;-60
2022/08/13 09:15:06;;;;;;;4.30;1.40;;;;;;;30.04;23.12;99951.00;10394769;28;20084;-60
2022/08/13 09:20:14;;;;;;;4.72;1.58;;;;;;;30.65;22.27;99950.19;10394496;28;20053;-57
2022/08/13 09:25:18;;;;;;;4.93;1.50;;;;;;;30.44;21.97;99947.00;10394446;28;20128;-57
2022/08/13 09:30:20;;;;;;;3.08;1.40;;;;;;;30.38;21.84;99951.41;10394689;28;20049;-57
2022/08/13 09:35:28;;;;;;;2.65;1.50;;;;;;;30.29;21.94;99944.63;10394012;28;20089;-57
2022/08/13 09:40:47;;;;;;;2.72;1.38;;;;;;;30.55;21.65;99930.97;10393508;28;20416;-57
2022/08/13 09:46:01;;;;;;;3.03;1.42;;;;;;;30.47;21.30;99933.94;10393789;28;20049;-57
2022/08/13 09:51:13;;;;;;;3.75;1.58;;;;;;;30.51;20.78;99927.06;10393101;28;20049;-57
2022/08/13 09:56:38;;;;;;;2.20;1.40;;;;;;;30.96;21.10;99922.25;10393071;28;20057;-57
2022/08/13 10:01:41;;;;;;;5.35;1.48;;;;;;;31.12;20.84;99921.69;10393460;28;20048;-57
2022/08/13 10:07:00;;;;;;;2.50;1.40;;;;;;;31.13;20.34;99912.53;10392745;28;20041;-57
2022/08/13 10:12:13;;;;;;;4.95;1.50;;;;;;;30.79;20.63;99909.53;10392981;28;20100;-57
2022/08/13 10:17:21;;;;;;;2.72;1.50;;;;;;;30.74;20.74;99898.59;10392884;28;20061;-57
2022/08/13 10:22:23;;;;;;;3.60;1.58;;;;;;;30.54;20.75;99890.66;10392638;28;20048;-57
2022/08/13 10:27:25;;;;;;;4.45;1.50;;;;;;;30.56;20.44;99885.88;10392476;28;20240;-58
2022/08/13 10:32:47;;;;;;;3.67;1.42;;;;;;;30.71;20.69;99880.13;10393276;28;20049;-58
2022/08/13 10:37:54;;;;;;;3.00;1.30;;;;;;;30.84;20.37;99871.91;10391148;28;20575;-60
2022/08/13 10:43:00;;;;;;;3.65;1.42;;;;;;;30.72;20.59;99861.03;10397465;28;20490;-60
2022/08/13 10:48:13;;;;;;;6.45;1.50;;;;;;;30.36;20.88;99853.66;10400298;28;20049;-60
2022/08/13 10:53:55;;;;;;;2.05;1.40;;;;;;;30.30;20.96;99854.53;10399926;28;20421;-60
2022/08/13 10:58:44;;;;;;;2.33;1.40;;;;;;;30.11;21.09;99852.00;10400223;28;20081;-60
2022/08/13 11:03:58;;;;;;;7.45;1.50;;;;;;;30.24;20.73;99852.72;10400269;28;20486;-60
2022/08/13 11:09:07;;;;;;;4.47;1.50;;;;;;;29.82;21.10;99845.34;10400144;28;20478;-60
2022/08/13 11:14:28;;;;;;;5.25;1.48;;;;;;;29.84;21.19;99840.56;10400115;28;20050;-60
2022/08/13 11:19:44;;;;;;;2.55;1.30;;;;;;;30.01;20.81;99841.69;10398487;28;20056;-59
2022/08/13 11:24:54;;;;;;;4.63;1.30;;;;;;;29.36;21.15;99839.38;10399425;28;20065;-58
2022/08/13 11:29:55;;;;;;;4.40;1.40;;;;;;;29.04;21.65;99833.06;10398956;28;20136;-57
2022/08/13 11:34:57;;;;;;;2.85;1.30;;;;;;;29.09;21.72;99827.91;10399048;28;20049;-58
2022/08/13 11:39:59;;;;;;;4.00;1.40;;;;;;;29.58;20.64;99819.19;10398568;28;20474;-57
2022/08/13 11:45:21;;;;;;;3.13;1.40;;;;;;;29.48;20.84;99824.22;10399191;28;20061;-57
2022/08/13 11:50:22;;;;;;;2.83;1.50;;;;;;;29.79;20.91;99819.63;10398386;28;20069;-58
2022/08/13 11:55:37;;;;;;;3.90;1.48;;;;;;;29.85;20.29;99807.97;10396810;28;20156;-58
2022/08/13 12:00:59;;;;;;;4.05;1.40;;;;;;;29.93;20.77;99803.41;10398338;28;20063;-58
2022/08/13 12:06:10;;;;;;;3.92;1.60;;;;;;;29.88;20.03;99814.81;10397657;28;20077;-58
2022/08/13 12:11:14;;;;;;;3.17;1.45;;;;;;;29.58;20.35;99811.88;10396476;28;20061;-58
2022/08/13 12:16:19;;;;;;;6.00;1.33;;;;;;;29.74;20.01;99794.38;10397030;28;20045;-57
2022/08/13 12:21:20;;;;;;;4.07;1.40;;;;;;;29.97;19.85;99789.25;10397701;28;20172;-57
2022/08/13 12:26:23;;;;;;;4.45;1.63;;;;;;;30.09;19.98;99798.25;10397481;28;20885;-58
2022/08/13 12:31:31;;;;;;;7.75;1.50;;;;;;;30.08;19.92;99790.41;10396583;28;20386;-58
2022/08/13 12:36:34;;;;;;;3.33;1.40;;;;;;;30.12;19.86;99781.66;10395890;28;20057;-57
2022/08/13 12:41:36;;;;;;;4.47;1.80;;;;;;;30.19;19.97;99776.19;10396441;28;20100;-57
2022/08/13 12:46:48;;;;;;;4.30;1.40;;;;;;;30.11;19.68;99763.78;10396072;28;20073;-57
2022/08/13 12:51:51;;;;;;;2.75;1.40;;;;;;;30.38;19.41;99758.97;10395680;28;20057;-57
2022/08/13 12:56:54;;;;;;;4.28;1.40;;;;;;;30.54;18.99;99756.53;10395271;28;20096;-57
2022/08/13 13:01:59;;;;;;;2.63;1.30;;;;;;;30.42;19.10;99757.47;10395293;28;20112;-58
2022/08/13 13:07:02;;;;;;;3.08;1.33;;;;;;;30.26;19.16;99742.72;10395146;28;20053;-57
2022/08/13 13:12:08;;;;;;;3.40;1.60;;;;;;;30.48;19.23;99738.56;10395047;28;20049;-57
2022/08/13 13:17:11;;;;;;;3.40;1.40;;;;;;;30.61;19.65;99733.00;10394827;28;20049;-57
2022/08/13 13:22:33;;;;;;;4.35;1.73;;;;;;;30.68;19.50;99720.25;10394841;28;20552;-57
2022/08/13 13:27:39;;;;;;;4.78;1.45;;;;;;;30.67;19.02;99732.09;10394575;28;20048;-58
2022/08/13 13:32:46;;;;;;;4.53;1.58;;;;;;;30.74;19.08;99715.84;10394379;28;20089;-57
2022/08/13 13:37:51;;;;;;;5.10;1.40;;;;;;;30.71;18.74;99716.28;10393741;28;20057;-57
2022/08/13 13:43:08;;;;;;;4.05;1.50;;;;;;;30.62;19.10;99715.75;10393782;28;20131;-57
2022/08/13 13:48:28;;;;;;;2.47;1.50;;;;;;;30.49;19.11;99707.00;10378301;28;20057;-57
2022/08/13 13:53:33;;;;;;;3.63;1.40;;;;;;;30.54;19.22;99702.56;10392749;28;20127;-58
2022/08/13 13:58:55;;;;;;;3.88;1.52;;;;;;;30.75;18.60;99684.22;10393137;28;20068;-57
2022/08/13 14:04:00;;;;;;;3.35;1.60;;;;;;;30.80;18.71;99681.69;10393504;28;20477;-60
2022/08/13 14:09:04;;;;;;;4.13;1.23;;;;;;;30.93;18.17;99684.19;10392068;28;20092;-60
2022/08/13 14:14:07;;;;;;;3.78;1.55;;;;;;;30.94;18.32;99675.03;10393304;28;20089;-60
2022/08/13 14:19:10;;;;;;;4.18;1.40;;;;;;;30.98;17.59;99681.66;10392166;28;20065;-59
2022/08/13 14:24:37;;;;;;;2.78;1.33;;;;;;;30.79;17.99;99675.44;10392415;28;20501;-59
2022/08/13 14:29:38;;;;;;;4.65;1.40;;;;;;;30.77;18.20;99655.13;10392649;28;20581;-60
2022/08/13 14:34:42;;;;;;;2.10;1.30;;;;;;;30.93;17.71;99655.31;10392511;28;20061;-60
2022/08/13 14:39:56;;;;;;;4.68;1.58;;;;;;;30.98;17.92;99652.78;10392425;28;20049;-60
2022/08/13 14:50:23;;;;;;;5.68;1.38;;;;;;;31.04;17.73;99638.34;10392302;28;20073;-60
2022/08/13 14:55:27;;;;;;;2.63;1.30;;;;;;;31.17;17.27;99640.84;10392094;28;20144;-60
2022/08/13 15:00:30;;;;;;;3.80;1.40;;;;;;;30.97;17.24;99642.16;10391004;28;20140;-60
2022/08/13 15:05:35;;;;;;;2.00;1.30;;;;;;;30.87;17.22;99629.22;10392469;28;20055;-60
2022/08/13 15:10:56;;;;;;;3.13;1.42;;;;;;;31.01;16.84;99630.69;10392164;28;20045;-60
2022/08/13 15:16:07;;;;;;;4.80;1.50;;;;;;;30.84;17.34;99618.91;10375274;28;20144;-59
2022/08/13 15:21:16;;;;;;;2.00;1.33;;;;;;;30.93;17.22;99613.97;10391475;28;20563;-60
2022/08/13 15:26:39;;;;;;;2.72;1.40;;;;;;;30.87;16.82;99604.09;10392963;28;20073;-60
2022/08/13 15:31:46;;;;;;;4.20;1.60;;;;;;;31.00;16.56;99602.06;10398940;28;20129;-60
2022/08/13 15:36:48;;;;;;;5.45;1.50;;;;;;;31.11;16.33;99601.25;10398521;28;20140;-60
2022/08/13 15:42:06;;;;;;;3.92;1.38;;;;;;;31.27;16.69;99597.06;10397489;28;20060;-60
2022/08/13 15:47:14;;;;;;;3.08;1.23;;;;;;;31.03;16.29;99589.94;10398854;28;20150;-60
2022/08/13 15:52:17;;;;;;;;;;;;;;;30.45;16.93;99574.38;10398642;28;20413;-60
2022/08/13 15:57:19;;;;;;;5.07;1.20;;;;;;;30.97;16.41;99574.63;10397637;28;20016;-60
2022/08/13 16:02:22;;;;;;;3.15;1.45;;;;;;;30.97;16.76;99574.63;10398004;28;20524;-60
2022/08/13 16:07:45;;;;;;;1.92;1.25;;;;;;;30.71;16.81;99564.25;10396619;28;20046;-60
2022/08/13 16:13:03;;;;;;;5.10;1.40;;;;;;;30.62;17.07;99567.28;10397849;28;20041;-60
2022/08/13 16:18:07;;;;;;;6.38;1.38;;;;;;;30.79;17.04;99555.81;10397375;28;20456;-60
2022/08/13 16:23:17;;;;;;;2.03;1.25;;;;;;;31.02;16.90;99539.69;10397451;28;20127;-60
2022/08/13 16:28:21;;;;;;;5.90;1.42;;;;;;;31.12;16.62;99539.94;10396937;28;20049;-59
2022/08/13 16:33:23;;;;;;;7.60;1.50;;;;;;;31.05;16.81;99537.34;10396795;28;20045;-60
2022/08/13 16:38:31;;;;;;;2.73;1.30;;;;;;;31.06;16.93;99536.31;10379003;28;20053;-60
2022/08/13 16:43:33;;;;;;;3.40;1.48;;;;;;;31.04;16.34;99521.38;10396083;28;20413;-60
2022/08/13 16:48:56;;;;;;;3.63;1.30;;;;;;;30.91;17.08;99510.75;10396293;28;20289;-60
2022/08/13 16:54:00;;;;;;;4.82;1.40;;;;;;;31.00;17.41;99521.03;10395866;28;20147;-60
2022/08/13 16:59:21;;;;;;;3.85;1.55;;;;;;;30.85;17.51;99507.13;10395397;28;20057;-60
2022/08/13 17:10:04;;;;;;;7.28;1.67;;;;;;;30.63;17.96;99509.53;10395066;28;20046;-60
2022/08/13 17:15:06;;;;;;;7.53;1.40;;;;;;;30.54;18.09;99508.22;10394741;28;20532;-59
2022/08/13 17:20:12;;;;;;;6.80;1.45;;;;;;;30.49;18.29;99497.31;10394931;28;20053;-59
2022/08/13 17:25:13;;;;;;;1.73;1.20;;;;;;;30.49;18.17;99500.00;10393566;28;20140;-60
2022/08/13 17:30:15;;;;;;;4.22;1.50;;;;;;;30.43;18.33;99498.19;10394620;28;20073;-60
2022/08/13 17:35:17;;;;;;;6.05;1.60;;;;;;;30.34;18.49;99502.25;10394700;28;20053;-60
2022/08/13 17:40:27;;;;;;;5.15;1.45;;;;;;;30.30;18.43;99489.44;10394319;28;20051;-60
2022/08/13 17:45:37;;;;;;;3.60;1.60;;;;;;;30.19;18.86;99493.75;10392925;28;20053;-60
2022/08/13 17:50:43;;;;;;;3.40;1.67;;;;;;;29.98;18.93;99494.25;10392540;28;20041;-60
2022/08/13 17:55:52;;;;;;;5.00;1.52;;;;;;;29.78;19.72;99507.13;10393201;28;20096;-60
2022/08/13 18:00:56;;;;;;;2.55;1.60;;;;;;;29.62;20.05;99507.75;10393125;28;20501;-60
2022/08/13 18:05:58;;;;;;;3.45;1.50;;;;;;;29.41;20.44;99500.09;10393205;28;20468;-60
2022/08/13 18:11:20;;;;;;;2.17;1.30;;;;;;;29.18;20.74;99499.88;10393482;28;20049;-59
2022/08/13 18:16:22;;;;;;;4.47;1.55;;;;;;;28.99;20.61;99502.53;10392850;28;20060;-59
2022/08/13 18:21:44;;;;;;;4.43;1.70;;;;;;;28.75;20.73;99505.16;10393411;28;20049;-60
2022/08/13 18:26:46;;;;;;;4.30;1.60;;;;;;;28.59;21.35;99501.16;10392695;28;20073;-60
2022/08/13 18:31:58;;;;;;;6.40;1.63;;;;;;;28.23;21.47;99500.97;10391351;28;20132;-60
2022/08/13 18:37:00;;;;;;;7.88;1.80;;;;;;;27.75;21.57;99519.34;10392535;28;20140;-60
2022/08/13 18:42:02;;;;;;;3.97;1.70;;;;;;;27.40;22.67;99508.06;10392336;28;20470;-59
2022/08/13 18:47:10;;;;;;;3.63;1.63;;;;;;;27.17;23.18;99513.06;10392195;28;20518;-60
2022/08/13 18:52:12;;;;;;;3.72;1.80;;;;;;;26.98;24.09;99513.03;10392093;28;20108;-60
2022/08/13 18:57:34;;;;;;;4.32;1.58;;;;;;;26.71;24.10;99517.56;10391028;28;20059;-60
2022/08/13 19:02:41;;;;;;;5.38;1.80;;;;;;;26.45;24.79;99531.72;10394758;28;20085;-60
2022/08/13 19:07:50;;;;;;;6.53;1.80;;;;;;;26.26;25.31;99529.81;10399466;28;20053;-59
2022/08/13 19:12:56;;;;;;;2.78;1.80;;;;;;;26.09;26.00;99535.75;10382016;28;20124;-60
2022/08/13 19:17:58;;;;;;;4.57;1.75;;;;;;;25.75;26.40;99532.06;10399367;28;20716;-59
2022/08/13 19:23:02;;;;;;;3.10;1.60;;;;;;;25.48;26.87;99537.47;10399546;28;20065;-60
2022/08/13 19:28:08;;;;;;;4.35;1.80;;;;;;;25.36;27.11;99542.56;10399543;28;20431;-59
2022/08/13 19:33:30;;;;;;;3.53;1.83;;;;;;;25.25;27.36;99553.75;10398688;28;20049;-59
2022/08/13 19:38:42;;;;;;;5.07;1.90;;;;;;;24.74;28.04;99553.13;10397474;28;20529;-59
2022/08/13 19:44:03;;;;;;;12.68;1.80;;;;;;;24.46;28.37;99560.22;10398488;28;20059;-60
2022/08/13 19:49:14;;;;;;;3.10;1.75;;;;;;;24.42;28.47;99569.63;10398496;28;20053;-59
2022/08/13 19:54:17;;;;;;;3.65;1.95;;;;;;;24.35;28.78;99570.56;10389506;28;20053;-60
2022/08/13 19:59:25;;;;;;;4.80;2.08;;;;;;;24.22;29.16;99573.91;10397873;28;20186;-60
2022/08/13 20:04:26;;;;;;;5.78;1.90;;;;;;;23.83;29.69;99578.72;10397657;28;20092;-59
2022/08/13 20:09:39;;;;;;;5.97;2.00;;;;;;;23.43;30.43;99590.66;10397484;28;20132;-59
2022/08/13 20:14:53;;;;;;;6.15;1.90;;;;;;;23.33;30.62;99595.41;10396238;28;20132;-59
2022/08/13 20:19:58;;;;;;;6.20;1.80;;;;;;;23.27;30.99;99594.28;10397224;28;20062;-60
2022/08/13 20:25:07;;;;;;;4.53;1.83;;;;;;;23.14;31.28;99590.56;10397457;28;20112;-59
2022/08/13 20:30:29;;;;;;;5.88;2.15;;;;;;;23.24;31.18;99604.47;10397252;28;20054;-59
2022/08/13 20:35:38;;;;;;;5.47;1.90;;;;;;;23.16;31.59;99601.88;10396372;28;20904;-59
2022/08/13 20:40:41;;;;;;;6.82;2.00;;;;;;;23.02;31.88;99610.69;10396649;28;20049;-59
2022/08/13 20:45:46;;;;;;;6.95;2.30;;;;;;;22.74;32.43;99606.88;10396097;28;20056;-59
2022/08/13 20:50:55;;;;;;;11.18;2.25;;;;;;;22.72;32.59;99608.88;10394950;28;20053;-59
2022/08/13 20:55:57;;;;;;;6.07;1.95;;;;;;;22.73;32.59;99616.72;10378889;28;20806;-60
2022/08/13 21:00:59;;;;;;;5.28;2.00;;;;;;;22.22;33.15;99610.16;10395507;28;20136;-59
2022/08/13 21:06:16;;;;;;;7.07;2.20;;;;;;;22.22;33.43;99606.63;10395019;28;20172;-60
2022/08/13 21:11:24;;;;;;;6.13;2.10;;;;;;;22.34;33.46;99613.25;10395121;28;20088;-59
2022/08/13 21:16:41;;;;;;;7.38;2.03;;;;;;;22.25;33.63;99608.97;10394806;28;20056;-59
2022/08/13 21:21:46;;;;;;;6.63;2.10;;;;;;;21.78;34.35;99609.75;10394418;28;20132;-59
2022/08/13 21:26:59;;;;;;;9.82;2.30;;;;;;;21.42;34.88;99618.31;10394332;28;20095;-59
2022/08/13 21:32:02;;;;;;;5.85;2.22;;;;;;;21.61;34.92;99615.31;10394211;28;20124;-59
2022/08/13 21:37:19;;;;;;;4.40;1.95;;;;;;;21.72;35.11;99615.75;10393770;28;20089;-59
2022/08/13 21:42:33;;;;;;;7.00;2.10;;;;;;;21.51;35.28;99607.50;10393752;28;20046;-59
2022/08/13 21:47:44;;;;;;;10.82;2.33;;;;;;;21.01;36.34;99615.66;10393728;28;20493;-59
2022/08/13 21:52:48;;;;;;;10.00;2.40;;;;;;;21.27;36.14;99609.34;10393257;28;20049;-60
2022/08/13 21:57:56;;;;;;;4.57;2.10;;;;;;;20.97;36.55;99611.66;10393016;28;20062;-59
2022/08/13 22:03:04;;;;;;;6.57;2.35;;;;;;;20.89;36.90;99613.47;10394006;28;20092;-60
2022/08/13 22:08:14;;;;;;;4.28;2.35;;;;;;;20.82;37.09;99626.63;10393463;28;20096;-59
2022/08/13 22:13:19;;;;;;;7.28;2.28;;;;;;;20.95;36.88;99629.59;10393157;28;20095;-59
2022/08/13 22:18:24;;;;;;;7.40;2.38;;;;;;;20.77;37.22;99634.22;10392513;28;20065;-60
2022/08/13 22:23:29;;;;;;;4.90;2.20;;;;;;;20.59;37.69;99630.88;10392720;28;20063;-59
2022/08/13 22:33:53;;;;;;;6.70;2.15;;;;;;;20.67;38.06;99644.19;10392478;28;20081;-59
2022/08/13 22:39:06;;;;;;;2.92;2.00;;;;;;;20.60;38.35;99637.84;10397423;28;20140;-59
2022/08/13 22:44:11;;;;;;;5.03;2.28;;;;;;;20.53;38.68;99631.50;10400797;28;20053;-59
2022/08/13 22:49:14;;;;;;;5.70;2.38;;;;;;;20.08;39.23;99638.94;10400640;28;20049;-59
2022/08/13 22:54:15;;;;;;;4.60;2.50;;;;;;;20.13;39.53;99634.81;10400271;28;20156;-59
2022/08/13 22:59:17;;;;;;;3.88;2.10;;;;;;;20.21;39.49;99637.50;10382501;28;20243;-59
2022/08/13 23:04:21;;;;;;;6.40;2.47;;;;;;;20.19;39.34;99633.38;10399884;28;20050;-59
2022/08/13 23:09:27;;;;;;;5.47;2.38;;;;;;;20.18;39.27;99624.56;10399747;28;20128;-59
2022/08/13 23:14:30;;;;;;;5.25;2.15;;;;;;;19.82;40.05;99628.38;10399714;28;20482;-59
2022/08/13 23:19:32;;;;;;;5.70;2.30;;;;;;;19.88;40.19;99633.06;10399099;28;21377;-59
2022/08/13 23:24:34;;;;;;;5.20;2.30;;;;;;;19.68;40.76;99615.66;10399199;28;20128;-59
2022/08/13 23:29:36;;;;;;;5.35;2.30;;;;;;;19.52;41.23;99618.22;10398788;28;20056;-59
2022/08/13 23:34:38;;;;;;;7.03;2.40;;;;;;;19.73;40.80;99625.78;10398858;28;20382;-59
2022/08/13 23:39:42;;;;;;;4.63;2.40;;;;;;;19.46;41.32;99618.81;10398479;28;20731;-59
2022/08/13 23:44:44;;;;;;;6.57;2.50;;;;;;;19.22;41.56;99616.00;10398511;28;20382;-59
2022/08/13 23:49:46;;;;;;;6.13;2.42;;;;;;;19.43;41.31;99614.69;10397878;28;20133;-59
2022/08/13 23:54:50;;;;;;;9.68;2.92;;;;;;;19.38;41.67;99603.69;10397622;28;20204;-59
2022/08/13 23:59:53;;;;;;;6.18;2.55;;;;;;;18.88;42.44;99602.59;10397794;28;20089;-59
